createdAt,value
2019-01-25T00:00:07.222Z,75.50
2019-01-25T00:02:36.112Z,77.97
2019-01-25T00:05:05.094Z,73.03
2019-01-25T00:07:33.703Z,70.63
2019-01-25T00:10:02.337Z,76.40
2019-01-25T00:12:31.251Z,75.43
2019-01-25T00:15:00.204Z,75.13
2019-01-25T00:17:29.032Z,73.53
2019-01-25T00:19:57.658Z,74.43
2019-01-25T00:22:26.505Z,74.50
2019-01-25T00:24:55.127Z,72.63
2019-01-25T00:27:23.976Z,80.37
2019-01-25T00:29:52.589Z,67.03
2019-01-25T00:32:21.202Z,78.57
2019-01-25T00:34:50.129Z,79.70
2019-01-25T00:37:18.722Z,85.50
2019-01-25T00:39:47.342Z,82.23
2019-01-25T00:42:15.923Z,85.73
2019-01-25T00:44:44.538Z,82.97
2019-01-25T00:47:13.135Z,85.60
2019-01-25T00:49:41.747Z,83.23
2019-01-25T00:52:10.361Z,93.50
2019-01-25T00:54:38.992Z,85.33
2019-01-25T00:57:07.869Z,87.07
2019-01-25T00:59:36.479Z,82.17
2019-01-25T01:02:05.443Z,88.37
2019-01-25T01:04:34.438Z,83.43
2019-01-25T01:07:03.044Z,80.50
2019-01-25T01:09:31.669Z,81.33
2019-01-25T01:12:00.263Z,87.00
2019-01-25T01:14:28.874Z,91.40
2019-01-25T01:16:57.459Z,86.40
2019-01-25T01:19:26.075Z,90.33
2019-01-25T01:21:54.696Z,86.13
2019-01-25T01:24:23.599Z,79.57
2019-01-25T01:26:52.222Z,77.87
2019-01-25T01:29:21.176Z,86.73
2019-01-25T01:31:50.155Z,84.10
2019-01-25T01:34:18.760Z,75.57
2019-01-25T01:36:47.762Z,82.60
2019-01-25T01:39:16.728Z,73.70
2019-01-25T01:41:45.350Z,78.07
2019-01-25T01:44:13.955Z,79.37
2019-01-25T01:46:42.575Z,74.67
2019-01-25T01:49:11.458Z,75.30
2019-01-25T01:51:40.072Z,76.93
2019-01-25T01:54:08.856Z,72.83
2019-01-25T01:56:37.821Z,80.53
2019-01-25T01:59:06.707Z,73.23
2019-01-25T02:01:35.320Z,87.10
2019-01-25T02:04:03.950Z,73.13
2019-01-25T02:06:32.592Z,87.47
2019-01-25T02:09:01.210Z,86.23
2019-01-25T02:11:29.802Z,72.17
2019-01-25T02:13:58.710Z,87.97
2019-01-25T02:16:27.319Z,82.57
2019-01-25T02:18:55.937Z,78.90
2019-01-25T02:21:24.583Z,78.10
2019-01-25T02:23:53.546Z,78.70
2019-01-25T02:26:22.165Z,78.10
2019-01-25T02:28:50.769Z,77.73
2019-01-25T02:31:19.376Z,76.23
2019-01-25T02:33:47.977Z,68.70
2019-01-25T02:36:16.585Z,79.13
2019-01-25T02:38:45.542Z,74.70
2019-01-25T02:41:14.176Z,78.17
2019-01-25T02:43:42.765Z,75.87
2019-01-25T02:46:11.376Z,83.70
2019-01-25T02:48:40.330Z,75.53
2019-01-25T02:51:09.268Z,73.90
2019-01-25T02:53:38.159Z,73.63
2019-01-25T02:56:07.075Z,81.57
2019-01-25T02:58:35.656Z,83.73
2019-01-25T03:03:42.837Z,69.93
2019-01-25T03:06:11.447Z,69.30
2019-01-25T03:08:40.037Z,76.70
2019-01-25T03:11:08.667Z,77.70
2019-01-25T03:13:37.561Z,81.27
2019-01-25T03:16:06.176Z,72.33
2019-01-25T03:18:34.778Z,71.37
2019-01-25T03:21:05.008Z,81.23
2019-01-25T03:23:31.997Z,75.40
2019-01-25T03:26:00.627Z,83.57
2019-01-25T03:28:29.237Z,80.07
2019-01-25T03:30:58.144Z,81.47
2019-01-25T03:33:26.753Z,79.10
2019-01-25T03:35:55.417Z,70.03
2019-01-25T03:38:24.298Z,74.77
2019-01-25T03:40:55.143Z,79.57
2019-01-25T03:43:21.892Z,74.63
2019-01-25T03:45:50.513Z,75.97
2019-01-25T03:48:19.543Z,75.03
2019-01-25T03:50:48.454Z,79.07
2019-01-25T03:53:17.039Z,78.60
2019-01-25T03:55:45.672Z,81.13
2019-01-25T03:58:14.283Z,73.33
2019-01-25T04:00:43.168Z,73.37
2019-01-25T04:03:12.058Z,74.53
2019-01-25T04:05:40.691Z,78.23
2019-01-25T04:08:09.287Z,77.40
2019-01-25T04:10:37.889Z,96.77
2019-01-25T04:13:06.495Z,98.67
2019-01-25T04:15:35.100Z,95.50
2019-01-25T04:18:03.711Z,90.57
2019-01-25T04:20:32.320Z,98.87
2019-01-25T04:23:00.953Z,99.00
2019-01-25T04:25:29.895Z,94.20
2019-01-25T04:27:58.517Z,101.83
2019-01-25T04:30:27.149Z,101.77
2019-01-25T04:32:55.782Z,89.43
2019-01-25T04:35:24.395Z,100.80
2019-01-25T04:37:53.035Z,92.70
2019-01-25T04:40:22.011Z,85.20
2019-01-25T04:42:51.001Z,90.93
2019-01-25T04:45:19.636Z,87.17
2019-01-25T04:47:48.264Z,80.40
2019-01-25T04:50:19.934Z,86.70
2019-01-25T04:52:48.909Z,94.53
2019-01-25T04:55:26.868Z,96.30
2019-01-25T04:57:55.508Z,87.33
2019-01-25T05:00:24.125Z,96.53
2019-01-25T05:02:55.833Z,97.47
2019-01-25T05:05:24.816Z,83.23
2019-01-25T05:07:53.842Z,80.80
2019-01-25T05:10:22.458Z,93.97
2019-01-25T05:12:53.119Z,94.10
2019-01-25T05:15:19.724Z,94.53
2019-01-25T05:17:51.436Z,89.67
2019-01-25T05:20:20.043Z,91.50
2019-01-25T05:22:48.986Z,95.43
2019-01-25T05:25:17.617Z,87.40
2019-01-25T05:27:46.235Z,85.83
2019-01-25T05:30:14.847Z,91.43
2019-01-25T05:32:43.482Z,88.80
2019-01-25T05:35:12.397Z,90.57
2019-01-25T05:37:41.013Z,88.23
2019-01-25T05:40:09.648Z,89.47
2019-01-25T05:42:38.296Z,89.50
2019-01-25T05:45:10.159Z,91.90
2019-01-25T05:47:38.782Z,93.77
2019-01-25T05:50:07.679Z,95.30
2019-01-25T05:52:36.565Z,93.43
2019-01-25T05:55:06.246Z,86.60
2019-01-25T05:57:34.078Z,93.40
2019-01-25T06:00:02.967Z,93.80
2019-01-25T06:02:31.590Z,96.37
2019-01-25T06:05:00.214Z,94.97
2019-01-25T06:07:28.849Z,90.50
2019-01-25T06:09:57.456Z,91.57
2019-01-25T06:12:26.449Z,95.07
2019-01-25T06:14:55.046Z,93.53
2019-01-25T06:17:23.665Z,93.47
2019-01-25T06:19:52.275Z,97.40
2019-01-25T06:22:21.256Z,98.77
2019-01-25T06:24:50.171Z,89.40
2019-01-25T06:27:19.161Z,94.40
2019-01-25T06:29:47.771Z,95.80
2019-01-25T06:32:16.738Z,96.20
2019-01-25T06:34:45.628Z,87.57
2019-01-25T06:37:14.522Z,98.03
2019-01-25T06:39:43.398Z,103.63
2019-01-25T06:42:12.392Z,92.00
2019-01-25T06:44:41.002Z,93.77
2019-01-25T06:47:09.621Z,97.27
2019-01-25T06:49:38.226Z,93.70
2019-01-25T06:52:06.831Z,93.60
2019-01-25T06:54:35.430Z,89.83
2019-01-25T06:57:04.063Z,92.77
2019-01-25T06:59:32.976Z,98.10
2019-01-25T07:02:01.565Z,92.30
2019-01-25T07:04:30.340Z,100.30
2019-01-25T07:06:58.948Z,92.63
2019-01-25T07:09:27.822Z,100.90
2019-01-25T07:11:56.421Z,98.07
2019-01-25T07:14:25.029Z,94.33
2019-01-25T07:16:53.649Z,97.43
2019-01-25T07:19:22.268Z,97.83
2019-01-25T07:21:50.881Z,98.07
2019-01-25T07:24:19.504Z,99.20
2019-01-25T07:26:48.399Z,100.83
2019-01-25T07:29:17.301Z,95.77
2019-01-25T07:31:46.389Z,97.70
2019-01-25T07:34:14.483Z,89.53
2019-01-25T07:36:43.453Z,102.30
2019-01-25T07:41:50.653Z,92.57
2019-01-25T07:44:19.246Z,91.67
2019-01-25T07:46:48.216Z,97.97
2019-01-25T07:49:16.817Z,108.87
2019-01-25T07:51:45.440Z,104.20
2019-01-25T07:54:14.077Z,91.43
2019-01-25T07:56:42.676Z,91.37
2019-01-25T07:59:11.625Z,101.80
2019-01-25T08:01:40.240Z,91.70
2019-01-25T08:04:08.864Z,92.27
2019-01-25T08:06:37.478Z,90.37
2019-01-25T08:09:06.485Z,97.80
2019-01-25T08:11:35.061Z,96.37
2019-01-25T08:14:04.061Z,98.27
2019-01-25T08:16:32.935Z,94.20
2019-01-25T08:19:01.538Z,100.40
2019-01-25T08:21:30.141Z,109.57
2019-01-25T08:23:58.763Z,101.77
2019-01-25T08:26:27.365Z,108.07
2019-01-25T08:28:56.235Z,105.63
2019-01-25T08:31:24.845Z,103.60
2019-01-25T08:33:53.460Z,100.00
2019-01-25T08:36:22.113Z,108.97
2019-01-25T08:38:50.693Z,106.40
2019-01-25T08:41:19.559Z,101.57
2019-01-25T08:43:48.185Z,111.50
2019-01-25T08:46:16.781Z,107.30
2019-01-25T08:48:45.393Z,102.00
2019-01-25T08:51:14.101Z,104.83
2019-01-25T08:53:42.715Z,108.53
2019-01-25T08:56:11.655Z,109.70
2019-01-25T08:58:40.883Z,102.73
2019-01-25T09:01:09.495Z,109.90
2019-01-25T09:03:38.119Z,108.60
2019-01-25T09:06:06.738Z,108.00
2019-01-25T09:08:35.338Z,108.17
2019-01-25T09:11:04.271Z,105.27
2019-01-25T09:13:33.263Z,96.27
2019-01-25T09:16:02.304Z,108.33
2019-01-25T09:18:30.913Z,102.83
2019-01-25T09:20:59.855Z,102.97
2019-01-25T09:23:28.818Z,114.07
2019-01-25T09:26:01.131Z,98.17
2019-01-25T09:28:26.318Z,109.97
2019-01-25T09:30:54.942Z,107.47
2019-01-25T09:33:23.563Z,101.53
2019-01-25T09:35:52.171Z,100.13
2019-01-25T09:38:20.784Z,106.73
2019-01-25T09:40:49.397Z,104.90
2019-01-25T09:43:17.991Z,98.50
2019-01-25T09:45:46.616Z,99.33
2019-01-25T09:48:15.555Z,96.07
2019-01-25T09:50:44.180Z,100.13
2019-01-25T09:53:12.792Z,92.97
2019-01-25T09:55:41.708Z,91.13
2019-01-25T09:58:10.372Z,93.70
2019-01-25T10:00:39.020Z,98.43
2019-01-25T10:03:07.967Z,89.67
2019-01-25T10:05:36.954Z,93.57
2019-01-25T10:08:05.546Z,96.43
2019-01-25T10:10:34.166Z,88.87
2019-01-25T10:13:02.805Z,94.30
2019-01-25T10:15:31.789Z,85.90
2019-01-25T10:18:00.380Z,82.93
2019-01-25T10:20:29.107Z,87.53
2019-01-25T10:22:57.713Z,88.07
2019-01-25T10:25:26.345Z,94.40
2019-01-25T10:27:54.949Z,87.23
2019-01-25T10:30:23.898Z,81.53
2019-01-25T10:32:52.778Z,77.57
2019-01-25T10:35:21.782Z,80.70
2019-01-25T10:37:50.402Z,84.87
2019-01-25T10:40:21.830Z,83.43
2019-01-25T10:42:53.242Z,80.37
2019-01-25T10:48:09.495Z,81.30
2019-01-25T10:50:38.459Z,83.63
2019-01-25T10:53:07.448Z,81.73
2019-01-25T10:55:36.075Z,81.57
2019-01-25T10:58:05.025Z,82.17
2019-01-25T11:00:33.683Z,85.73
2019-01-25T11:03:02.588Z,69.03
2019-01-25T11:05:31.580Z,83.93
2019-01-25T11:08:00.469Z,77.53
2019-01-25T11:10:29.130Z,72.63
2019-01-25T11:13:00.978Z,68.80
2019-01-25T11:15:26.371Z,80.23
2019-01-25T11:17:54.970Z,84.30
2019-01-25T11:20:23.627Z,68.30
2019-01-25T11:22:52.269Z,75.03
2019-01-25T11:25:29.654Z,76.17
2019-01-25T11:27:58.255Z,69.03
2019-01-25T11:30:26.893Z,76.07
2019-01-25T11:32:55.824Z,69.83
2019-01-25T11:35:24.452Z,68.60
2019-01-25T11:37:53.054Z,64.53
2019-01-25T11:40:21.961Z,70.50
2019-01-25T11:42:50.576Z,70.30
2019-01-25T11:45:19.563Z,70.57
2019-01-25T11:47:48.516Z,60.83
2019-01-25T11:52:55.678Z,61.23
2019-01-25T11:55:24.289Z,62.67
2019-01-25T11:57:52.890Z,69.07
2019-01-25T12:03:00.451Z,66.63
2019-01-25T12:05:29.067Z,69.27
2019-01-25T12:07:57.957Z,66.50
2019-01-25T12:10:29.613Z,74.80
2019-01-25T12:12:58.221Z,64.20
2019-01-25T12:15:26.836Z,66.03
2019-01-25T12:17:55.762Z,68.03
2019-01-25T12:23:02.948Z,71.63
2019-01-25T12:25:31.849Z,67.83
2019-01-25T12:28:05.210Z,65.13
2019-01-25T12:30:37.905Z,71.93
2019-01-25T12:33:04.142Z,67.50
2019-01-25T12:35:38.985Z,77.90
2019-01-25T12:38:07.595Z,70.63
2019-01-25T12:40:36.202Z,76.77
2019-01-25T12:43:04.821Z,77.50
2019-01-25T12:45:33.432Z,75.73
2019-01-25T12:48:02.034Z,70.70
2019-01-25T12:50:36.662Z,70.13
2019-01-25T12:53:05.596Z,68.10
2019-01-25T12:55:34.220Z,73.40
2019-01-25T12:58:03.212Z,69.37
2019-01-25T13:00:31.843Z,64.93
2019-01-25T13:03:00.422Z,58.60
2019-01-25T13:05:29.056Z,65.13
2019-01-25T13:07:57.645Z,61.77
2019-01-25T13:10:26.591Z,68.20
2019-01-25T13:12:55.185Z,68.40
2019-01-25T13:15:23.808Z,67.07
2019-01-25T13:17:52.414Z,62.50
2019-01-25T13:20:30.432Z,62.57
2019-01-25T13:22:59.071Z,70.37
2019-01-25T13:25:27.678Z,66.13
2019-01-25T13:27:56.611Z,67.53
2019-01-25T13:30:28.505Z,54.63
2019-01-25T13:32:57.123Z,59.67
2019-01-25T13:35:25.714Z,68.67
2019-01-25T13:37:54.605Z,64.87
2019-01-25T13:40:23.597Z,58.43
2019-01-25T13:42:52.585Z,61.77
2019-01-25T13:45:21.303Z,57.77
2019-01-25T13:47:49.915Z,56.27
2019-01-25T13:50:27.886Z,55.40
2019-01-25T13:52:56.842Z,43.40
2019-01-25T13:55:25.838Z,48.67
2019-01-25T13:57:54.455Z,49.77
2019-01-25T14:00:29.083Z,49.27
2019-01-25T14:02:57.687Z,49.53
2019-01-25T14:05:26.609Z,44.47
2019-01-25T14:07:55.246Z,41.73
2019-01-25T14:10:27.099Z,42.90
2019-01-25T14:12:56.043Z,44.87
2019-01-25T14:15:24.648Z,43.47
2019-01-25T14:17:53.638Z,46.00
2019-01-25T14:20:23.478Z,44.90
2019-01-25T14:22:50.918Z,45.37
2019-01-25T14:25:19.521Z,42.30
2019-01-25T14:27:48.451Z,49.33
2019-01-25T14:33:07.874Z,42.57
2019-01-25T14:35:36.829Z,44.67
2019-01-25T14:38:05.813Z,44.43
2019-01-25T14:40:34.466Z,45.17
2019-01-25T14:43:03.388Z,40.60
2019-01-25T14:45:32.410Z,44.63
2019-01-25T14:48:01.047Z,47.57
2019-01-25T14:50:29.671Z,44.67
2019-01-25T14:52:58.341Z,41.83
2019-01-25T14:55:26.998Z,43.50
2019-01-25T14:57:55.634Z,45.10
2019-01-25T15:00:24.232Z,46.33
2019-01-25T15:02:53.183Z,47.50
2019-01-25T15:05:21.831Z,44.97
2019-01-25T15:07:50.463Z,49.77
2019-01-25T15:10:19.109Z,54.23
2019-01-25T15:12:47.736Z,52.80
2019-01-25T15:15:16.356Z,50.27
2019-01-25T15:17:45.270Z,57.00
2019-01-25T15:20:13.903Z,54.60
2019-01-25T15:22:42.844Z,50.13
2019-01-25T15:25:11.724Z,71.97
2019-01-25T15:27:40.339Z,50.53
2019-01-25T15:30:09.307Z,55.70
2019-01-25T15:32:37.913Z,47.30
2019-01-25T15:35:06.546Z,47.47
2019-01-25T15:37:35.182Z,45.83
2019-01-25T15:40:04.138Z,47.87
2019-01-25T15:42:32.760Z,48.83
2019-01-25T15:45:01.368Z,44.17
2019-01-25T15:47:30.295Z,58.03
2019-01-25T15:49:58.915Z,58.33
2019-01-25T15:52:27.884Z,53.57
2019-01-25T15:54:56.511Z,51.53
2019-01-25T15:57:25.130Z,107.50
2019-01-25T15:59:53.737Z,74.40
2019-01-25T16:02:22.704Z,57.17
2019-01-25T16:04:51.329Z,52.13
2019-01-25T16:07:19.946Z,43.03
2019-01-25T16:09:48.552Z,49.57
2019-01-25T16:12:17.184Z,54.90
2019-01-25T16:14:46.225Z,50.83
2019-01-25T16:17:14.864Z,45.77
2019-01-25T16:19:43.806Z,40.93
2019-01-25T16:22:12.466Z,41.10
2019-01-25T16:27:29.233Z,37.13
2019-01-25T16:29:58.199Z,46.20
2019-01-25T16:32:27.200Z,45.87
2019-01-25T16:34:55.818Z,42.57
2019-01-25T16:37:24.758Z,43.30
2019-01-25T16:39:53.378Z,49.93
2019-01-25T16:42:23.352Z,46.73
2019-01-25T16:44:51.959Z,47.27
2019-01-25T16:47:20.924Z,42.13
2019-01-25T16:49:49.839Z,44.60
2019-01-25T16:52:18.499Z,47.80
2019-01-25T16:54:47.390Z,40.47
2019-01-25T16:57:16.023Z,37.40
2019-01-25T16:59:44.632Z,41.20
2019-01-25T17:02:13.257Z,41.53
2019-01-25T17:04:41.891Z,36.87
2019-01-25T17:07:10.821Z,36.83
2019-01-25T17:09:39.719Z,41.90
2019-01-25T17:12:08.686Z,71.17
2019-01-25T17:14:37.290Z,48.77
2019-01-25T17:17:05.943Z,43.20
2019-01-25T17:19:34.519Z,37.53
2019-01-25T17:22:03.407Z,36.10
2019-01-25T17:24:32.330Z,35.67
2019-01-25T17:27:00.951Z,36.33
2019-01-25T17:29:29.570Z,36.87
2019-01-25T17:31:58.564Z,33.17
2019-01-25T17:34:27.197Z,34.50
2019-01-25T17:36:56.149Z,31.73
2019-01-25T17:39:25.014Z,30.40
2019-01-25T17:41:53.916Z,31.27
2019-01-25T17:44:22.542Z,31.80
2019-01-25T17:46:51.160Z,30.77
2019-01-25T17:49:19.798Z,28.43
2019-01-25T17:51:48.404Z,32.47
2019-01-25T17:54:17.125Z,24.13
2019-01-25T17:56:45.736Z,31.07
2019-01-25T17:59:15.402Z,25.73
2019-01-25T18:04:38.400Z,26.53
2019-01-25T18:07:07.004Z,30.23
2019-01-25T18:09:35.622Z,28.13
2019-01-25T18:12:04.242Z,24.93
2019-01-25T18:14:33.223Z,29.40
2019-01-25T18:17:01.821Z,24.97
2019-01-25T18:19:30.441Z,27.03
2019-01-25T18:24:37.920Z,25.03
2019-01-25T18:27:06.540Z,27.10
2019-01-25T18:29:35.459Z,29.33
2019-01-25T18:32:04.094Z,27.97
2019-01-25T18:34:32.727Z,29.60
2019-01-25T18:37:01.338Z,28.17
2019-01-25T18:39:29.957Z,26.43
2019-01-25T18:44:37.434Z,27.20
2019-01-25T18:47:06.013Z,28.27
2019-01-25T18:49:34.619Z,29.97
2019-01-25T18:52:03.545Z,26.23
2019-01-25T18:54:32.537Z,29.17
2019-01-25T18:57:01.150Z,26.70
2019-01-25T18:59:29.772Z,27.57
2019-01-25T19:04:37.258Z,26.77
2019-01-25T19:07:05.861Z,29.27
2019-01-25T19:09:34.491Z,27.33
2019-01-25T19:12:03.115Z,26.47
2019-01-25T19:14:31.751Z,29.43
2019-01-25T19:17:00.357Z,26.40
2019-01-25T19:19:29.310Z,26.37
2019-01-25T19:21:57.909Z,27.87
2019-01-25T19:24:26.885Z,30.03
2019-01-25T19:26:55.486Z,29.63
2019-01-25T19:29:24.121Z,27.90
2019-01-25T19:31:53.030Z,30.67
2019-01-25T19:34:21.932Z,30.03
2019-01-25T19:36:50.543Z,28.40
2019-01-25T19:39:19.496Z,29.07
2019-01-25T19:41:48.090Z,28.13
2019-01-25T19:44:16.705Z,28.23
2019-01-25T19:46:45.311Z,31.17
2019-01-25T19:49:14.223Z,30.83
2019-01-25T19:51:43.113Z,29.77
2019-01-25T19:54:11.748Z,29.00
2019-01-25T19:56:40.688Z,30.87
2019-01-25T19:59:09.683Z,28.60
2019-01-25T20:01:38.674Z,32.20
2019-01-25T20:04:07.296Z,30.90
2019-01-25T20:06:35.916Z,31.57
2019-01-25T20:09:04.792Z,30.90
2019-01-25T20:11:33.374Z,28.77
2019-01-25T20:14:02.299Z,31.00
2019-01-25T20:16:31.183Z,31.33
2019-01-25T20:18:59.816Z,31.23
2019-01-25T20:21:28.873Z,29.30
2019-01-25T20:23:57.851Z,30.97
2019-01-25T20:26:26.535Z,34.17
2019-01-25T20:28:55.146Z,29.27
2019-01-25T20:31:23.796Z,31.00
2019-01-25T20:33:52.912Z,32.07
2019-01-25T20:36:21.532Z,31.07
2019-01-25T20:38:50.565Z,35.67
2019-01-25T20:41:19.176Z,32.73
2019-01-25T20:43:47.870Z,32.83
2019-01-25T20:46:16.442Z,34.13
2019-01-25T20:48:45.067Z,32.03
2019-01-25T20:51:13.681Z,34.00
2019-01-25T20:53:42.306Z,36.30
2019-01-25T20:56:11.251Z,34.13
2019-01-25T20:58:40.144Z,36.00
2019-01-25T21:01:09.033Z,36.17
2019-01-25T21:03:37.649Z,36.60
2019-01-25T21:06:06.270Z,37.47
2019-01-25T21:08:34.877Z,46.23
2019-01-25T21:11:03.485Z,45.40
2019-01-25T21:13:32.454Z,40.63
2019-01-25T21:16:01.088Z,38.63
2019-01-25T21:18:29.709Z,44.53
2019-01-25T21:20:58.378Z,40.90
2019-01-25T21:23:27.297Z,42.13
2019-01-25T21:25:55.906Z,46.63
2019-01-25T21:28:24.861Z,48.63
2019-01-25T21:30:53.506Z,47.27
2019-01-25T21:33:22.111Z,47.27
2019-01-25T21:35:50.729Z,42.77
2019-01-25T21:38:19.335Z,48.70
2019-01-25T21:43:26.483Z,46.40
2019-01-25T21:45:55.096Z,52.40
2019-01-25T21:48:24.093Z,49.83
2019-01-25T21:50:52.676Z,49.53
2019-01-25T21:53:21.629Z,44.93
2019-01-25T21:55:50.258Z,49.37
2019-01-25T21:58:18.876Z,45.83
2019-01-25T22:00:47.511Z,47.20
2019-01-25T22:03:16.121Z,49.33
2019-01-25T22:05:45.055Z,44.00
2019-01-25T22:08:13.950Z,41.30
2019-01-25T22:10:43.927Z,45.20
2019-01-25T22:13:11.220Z,37.57
2019-01-25T22:15:39.902Z,41.17
2019-01-25T22:18:08.515Z,38.83
2019-01-25T22:20:37.136Z,39.47
2019-01-25T22:23:06.045Z,38.17
2019-01-25T22:25:34.663Z,40.40
2019-01-25T22:28:03.623Z,36.90
2019-01-25T22:30:32.617Z,40.07
2019-01-25T22:33:01.244Z,33.23
2019-01-25T22:35:30.201Z,34.33
2019-01-25T22:37:58.840Z,35.90
2019-01-25T22:40:27.473Z,30.90
2019-01-25T22:42:56.131Z,31.30
2019-01-25T22:48:03.663Z,31.20
2019-01-25T22:50:32.301Z,28.07
2019-01-25T22:53:01.203Z,27.73
2019-01-25T22:55:30.082Z,29.83
2019-01-25T22:57:58.685Z,24.77
2019-01-25T23:03:06.177Z,26.47
2019-01-25T23:08:28.408Z,25.57
2019-01-25T23:10:57.315Z,26.73
2019-01-25T23:13:26.204Z,27.70
2019-01-25T23:15:55.053Z,24.50
2019-01-25T23:18:23.663Z,27.33
2019-01-25T23:20:52.298Z,24.43
2019-01-25T23:23:20.892Z,25.10
2019-01-25T23:25:49.827Z,21.80
2019-01-25T23:28:18.720Z,24.67
2019-01-25T23:30:47.326Z,24.20
2019-01-25T23:33:15.931Z,23.00
2019-01-25T23:35:44.539Z,22.50
2019-01-25T23:38:13.148Z,23.73
2019-01-25T23:40:41.776Z,24.47
2019-01-25T23:43:10.717Z,21.10
2019-01-25T23:45:39.360Z,22.33
2019-01-25T23:48:07.945Z,23.17
2019-01-25T23:50:36.666Z,21.40
2019-01-25T23:53:05.260Z,25.20
2019-01-25T23:55:33.890Z,22.03
2019-01-25T23:58:02.480Z,23.90
